createdAt,value
2022-09-26T00:00:03.722Z,19.92
2022-09-26T00:03:06.168Z,22.48
2022-09-26T00:06:08.988Z,19.92
2022-09-26T00:09:12.240Z,19.37
2022-09-26T00:12:15.430Z,21.58
2022-09-26T00:15:23.003Z,20.77
2022-09-26T00:18:25.835Z,19.80
2022-09-26T00:21:30.343Z,20.60
2022-09-26T00:24:32.799Z,20.53
2022-09-26T00:27:35.233Z,20.48
2022-09-26T00:30:37.821Z,20.92
2022-09-26T00:33:40.398Z,22.20
2022-09-26T00:36:43.376Z,21.70
2022-09-26T00:39:45.821Z,17.83
2022-09-26T00:42:48.207Z,18.15
2022-09-26T00:45:50.832Z,19.35
2022-09-26T00:49:15.403Z,18.37
2022-09-26T00:52:22.933Z,17.30
2022-09-26T00:55:30.906Z,19.17
2022-09-26T00:59:07.699Z,17.40
2022-09-26T01:02:10.315Z,20.00
2022-09-26T01:05:16.095Z,21.70
2022-09-26T01:08:21.912Z,22.48
2022-09-26T01:11:24.405Z,24.77
2022-09-26T01:14:27.621Z,22.33
2022-09-26T01:17:30.353Z,20.85
2022-09-26T01:20:45.759Z,21.05
2022-09-26T01:24:10.743Z,19.90
2022-09-26T01:27:25.423Z,22.00
2022-09-26T01:30:33.896Z,21.65
2022-09-26T01:34:00.873Z,20.95
2022-09-26T01:37:36.407Z,21.70
2022-09-26T01:40:53.471Z,20.33
2022-09-26T01:44:16.083Z,21.13
2022-09-26T01:47:28.016Z,17.80
2022-09-26T01:50:44.420Z,21.75
2022-09-26T01:53:46.814Z,20.27
2022-09-26T01:56:51.518Z,23.30
2022-09-26T01:59:57.849Z,20.00
2022-09-26T02:03:00.713Z,20.90
2022-09-26T02:06:07.500Z,20.10
2022-09-26T02:09:16.833Z,18.95
2022-09-26T02:12:27.797Z,22.33
2022-09-26T02:15:31.357Z,21.77
2022-09-26T02:18:41.884Z,19.42
2022-09-26T02:21:44.470Z,22.85
2022-09-26T02:24:46.899Z,23.98
2022-09-26T02:27:50.375Z,22.83
2022-09-26T02:30:56.354Z,20.47
2022-09-26T02:33:58.901Z,22.60
2022-09-26T02:37:01.353Z,20.80
2022-09-26T02:40:04.054Z,22.35
2022-09-26T02:43:28.988Z,19.95
2022-09-26T02:46:54.074Z,21.63
2022-09-26T02:50:39.555Z,23.25
2022-09-26T02:54:10.056Z,23.80
2022-09-26T02:57:18.327Z,23.70
2022-09-26T03:00:23.773Z,23.12
2022-09-26T03:03:34.487Z,20.13
2022-09-26T03:06:44.726Z,24.23
2022-09-26T03:09:48.834Z,23.17
2022-09-26T03:12:51.658Z,22.45
2022-09-26T03:15:58.816Z,24.52
2022-09-26T03:19:06.598Z,24.00
2022-09-26T03:22:09.779Z,23.67
2022-09-26T03:25:16.337Z,22.67
2022-09-26T03:28:18.731Z,21.40
2022-09-26T03:31:22.388Z,22.30
2022-09-26T03:34:25.004Z,24.17
2022-09-26T03:37:27.500Z,21.20
2022-09-26T03:40:30.015Z,20.48
2022-09-26T03:43:32.481Z,21.80
2022-09-26T03:46:39.094Z,23.10
2022-09-26T03:49:42.643Z,23.87
2022-09-26T03:52:45.067Z,21.90
2022-09-26T03:55:47.525Z,22.25
2022-09-26T03:58:50.132Z,25.00
2022-09-26T04:01:53.932Z,24.92
2022-09-26T04:04:56.790Z,26.43
2022-09-26T04:08:00.325Z,26.23
2022-09-26T04:11:23.081Z,25.50
2022-09-26T04:14:26.188Z,25.52
2022-09-26T04:17:29.500Z,26.55
2022-09-26T04:20:31.987Z,25.37
2022-09-26T04:23:36.375Z,27.58
2022-09-26T04:26:40.474Z,29.90
2022-09-26T04:29:44.172Z,27.77
2022-09-26T04:32:47.725Z,30.12
2022-09-26T04:35:50.340Z,29.93
2022-09-26T04:38:53.532Z,29.75
2022-09-26T04:41:55.937Z,27.92
2022-09-26T04:44:58.590Z,30.20
2022-09-26T04:48:07.817Z,29.27
2022-09-26T04:51:13.077Z,31.73
2022-09-26T04:54:16.365Z,34.15
2022-09-26T04:57:20.042Z,32.35
2022-09-26T05:00:23.470Z,29.42
2022-09-26T05:03:26.056Z,32.63
2022-09-26T05:06:28.493Z,32.23
2022-09-26T05:09:35.691Z,33.80
2022-09-26T05:12:41.965Z,32.70
2022-09-26T05:15:44.389Z,31.60
2022-09-26T05:18:53.449Z,33.17
2022-09-26T05:21:55.985Z,33.07
2022-09-26T05:25:17.019Z,32.20
2022-09-26T05:28:19.582Z,32.25
2022-09-26T05:31:24.953Z,34.70
2022-09-26T05:34:27.451Z,32.83
2022-09-26T05:37:29.876Z,33.37
2022-09-26T05:40:51.001Z,30.98
2022-09-26T05:43:53.903Z,32.13
2022-09-26T05:46:58.176Z,30.88
2022-09-26T05:50:00.648Z,36.05
2022-09-26T05:53:03.561Z,35.93
2022-09-26T05:56:06.822Z,39.53
2022-09-26T05:59:09.426Z,37.05
2022-09-26T06:02:14.298Z,33.50
2022-09-26T06:05:19.843Z,37.10
2022-09-26T06:08:22.691Z,38.47
2022-09-26T06:11:28.073Z,37.38
2022-09-26T06:14:32.184Z,38.45
2022-09-26T06:17:34.707Z,37.33
2022-09-26T06:20:37.242Z,39.63
2022-09-26T06:23:39.816Z,38.10
2022-09-26T06:26:42.278Z,39.15
2022-09-26T06:29:44.686Z,39.83
2022-09-26T06:32:47.436Z,36.25
2022-09-26T06:36:00.765Z,36.70
2022-09-26T06:39:03.462Z,35.70
2022-09-26T06:42:07.568Z,35.72
2022-09-26T06:45:11.084Z,37.70
2022-09-26T06:48:13.486Z,38.90
2022-09-26T06:51:15.989Z,41.63
2022-09-26T06:54:18.417Z,44.83
2022-09-26T06:57:21.643Z,46.50
2022-09-26T07:00:24.964Z,46.20
2022-09-26T07:03:27.521Z,45.20
2022-09-26T07:06:30.205Z,45.95
2022-09-26T07:09:34.062Z,47.47
2022-09-26T07:12:37.815Z,47.62
2022-09-26T07:15:40.253Z,47.83
2022-09-26T07:18:42.913Z,47.05
2022-09-26T07:21:46.419Z,42.72
2022-09-26T07:24:50.374Z,47.43
2022-09-26T07:27:52.842Z,41.15
2022-09-26T07:30:57.289Z,40.92
2022-09-26T07:33:59.878Z,40.12
2022-09-26T07:37:02.408Z,36.47
2022-09-26T07:40:06.073Z,36.27
2022-09-26T07:43:19.655Z,44.72
2022-09-26T07:46:41.703Z,38.30
2022-09-26T07:50:02.988Z,41.58
2022-09-26T07:53:05.706Z,35.38
2022-09-26T07:56:11.058Z,34.93
2022-09-26T07:59:13.608Z,31.33
2022-09-26T08:02:24.767Z,33.60
2022-09-26T08:05:27.485Z,32.10
2022-09-26T08:08:30.706Z,32.22
2022-09-26T08:11:33.296Z,29.57
2022-09-26T08:14:36.212Z,30.45
2022-09-26T08:17:42.424Z,32.05
2022-09-26T08:20:47.140Z,32.17
2022-09-26T08:23:49.633Z,28.65
2022-09-26T08:26:55.112Z,29.80
2022-09-26T08:29:57.891Z,28.77
2022-09-26T08:33:00.712Z,27.60
2022-09-26T08:36:08.609Z,30.83
2022-09-26T08:39:11.540Z,25.88
2022-09-26T08:42:52.307Z,27.33
2022-09-26T08:46:35.934Z,21.83
2022-09-26T08:50:17.457Z,21.40
2022-09-26T08:53:27.356Z,20.45
2022-09-26T08:56:40.067Z,21.33
2022-09-26T08:59:44.985Z,23.17
2022-09-26T09:03:12.632Z,19.35
2022-09-26T09:06:16.076Z,21.77
2022-09-26T09:09:18.577Z,18.92
2022-09-26T09:12:31.369Z,19.20
2022-09-26T09:15:51.203Z,16.20
2022-09-26T09:18:58.825Z,15.90
2022-09-26T09:22:40.985Z,14.75
2022-09-26T09:25:55.508Z,14.82
2022-09-26T09:29:11.389Z,12.88
2022-09-26T09:32:18.174Z,13.13
2022-09-26T09:35:29.584Z,13.50
2022-09-26T09:38:34.348Z,11.55
2022-09-26T09:41:45.556Z,11.40
2022-09-26T09:44:58.126Z,11.45
2022-09-26T09:48:00.716Z,10.80
2022-09-26T09:51:33.265Z,10.75
2022-09-26T09:54:55.691Z,10.05
2022-09-26T09:58:08.222Z,9.85
2022-09-26T10:01:33.765Z,10.68
2022-09-26T10:04:44.540Z,10.33
2022-09-26T10:07:58.503Z,10.20
2022-09-26T10:11:24.143Z,8.55
2022-09-26T10:14:34.787Z,7.80
2022-09-26T10:17:39.456Z,8.20
2022-09-26T10:20:53.002Z,8.33
2022-09-26T10:23:55.552Z,8.77
2022-09-26T10:27:37.063Z,8.00
2022-09-26T10:30:48.809Z,8.75
2022-09-26T10:34:00.303Z,9.35
2022-09-26T10:37:24.868Z,9.83
2022-09-26T10:40:46.399Z,10.60
2022-09-26T10:43:54.698Z,7.87
2022-09-26T10:46:59.354Z,9.82
2022-09-26T10:50:12.297Z,8.80
2022-09-26T10:53:15.656Z,9.30
2022-09-26T10:56:26.323Z,8.50
2022-09-26T10:59:33.058Z,12.25
2022-09-26T11:02:38.390Z,8.32
2022-09-26T11:05:56.523Z,9.18
2022-09-26T11:09:03.145Z,9.33
2022-09-26T11:12:26.118Z,8.73
2022-09-26T11:15:29.896Z,11.90
2022-09-26T11:18:40.078Z,9.02
2022-09-26T11:21:58.695Z,10.02
2022-09-26T11:25:11.978Z,9.27
2022-09-26T11:28:42.289Z,8.80
2022-09-26T11:31:46.115Z,9.52
2022-09-26T11:34:54.440Z,9.05
2022-09-26T11:38:36.016Z,7.62
2022-09-26T11:41:48.952Z,8.10
2022-09-26T11:45:09.602Z,7.90
2022-09-26T11:48:41.299Z,8.25
2022-09-26T11:52:08.719Z,9.68
2022-09-26T11:55:18.389Z,7.55
2022-09-26T11:58:38.748Z,7.73
2022-09-26T12:01:53.195Z,7.05
2022-09-26T12:05:17.189Z,8.00
2022-09-26T12:08:25.959Z,7.25
2022-09-26T12:11:59.362Z,7.75
2022-09-26T12:15:08.648Z,7.70
2022-09-26T12:18:39.467Z,7.72
2022-09-26T12:22:09.609Z,8.85
2022-09-26T12:25:29.835Z,10.55
2022-09-26T12:28:41.503Z,8.18
2022-09-26T12:32:02.788Z,8.90
2022-09-26T12:35:24.910Z,8.50
2022-09-26T12:38:52.039Z,8.75
2022-09-26T12:42:11.972Z,8.05
2022-09-26T12:45:24.045Z,8.77
2022-09-26T12:48:36.076Z,8.17
2022-09-26T12:51:42.212Z,9.15
2022-09-26T12:55:09.796Z,10.07
2022-09-26T12:58:18.821Z,9.38
2022-09-26T13:01:44.752Z,8.43
2022-09-26T13:04:51.200Z,8.80
2022-09-26T13:08:15.740Z,8.57
2022-09-26T13:11:36.458Z,8.77
2022-09-26T13:15:05.305Z,8.82
2022-09-26T13:18:17.545Z,8.88
2022-09-26T13:21:24.985Z,9.63
2022-09-26T13:25:02.095Z,10.52
2022-09-26T13:28:13.609Z,10.70
2022-09-26T13:31:27.274Z,9.15
2022-09-26T13:34:47.469Z,9.10
2022-09-26T13:38:22.639Z,11.13
2022-09-26T13:41:38.554Z,10.25
2022-09-26T13:44:56.518Z,9.93
2022-09-26T13:48:09.348Z,10.15
2022-09-26T13:51:28.754Z,9.15
2022-09-26T13:55:10.458Z,9.20
2022-09-26T13:58:21.253Z,8.68
2022-09-26T14:01:27.638Z,12.32
2022-09-26T14:04:36.802Z,10.07
2022-09-26T14:07:58.015Z,10.45
2022-09-26T14:11:11.884Z,10.20
2022-09-26T14:14:21.446Z,9.13
2022-09-26T14:17:42.223Z,9.55
2022-09-26T14:21:06.593Z,9.52
2022-09-26T14:24:28.228Z,8.77
2022-09-26T14:27:37.048Z,8.83
2022-09-26T14:30:39.500Z,10.82
2022-09-26T14:33:44.247Z,11.23
2022-09-26T14:36:47.494Z,9.82
2022-09-26T14:40:00.315Z,9.73
2022-09-26T14:43:04.952Z,9.20
2022-09-26T14:46:17.358Z,8.90
2022-09-26T14:49:25.719Z,8.90
2022-09-26T14:52:28.343Z,8.77
2022-09-26T14:55:31.064Z,10.57
2022-09-26T14:58:36.530Z,9.80
2022-09-26T15:01:39.255Z,9.15
2022-09-26T15:04:53.340Z,9.32
2022-09-26T15:07:57.016Z,9.63
2022-09-26T15:11:01.607Z,8.75
2022-09-26T15:14:39.966Z,8.77
2022-09-26T15:17:47.926Z,8.43
2022-09-26T15:20:55.229Z,10.25
2022-09-26T15:23:57.912Z,9.55
2022-09-26T15:27:15.242Z,9.30
2022-09-26T15:30:27.492Z,9.40
2022-09-26T15:33:30.448Z,8.90
2022-09-26T15:36:34.817Z,9.80
2022-09-26T15:39:39.579Z,9.25
2022-09-26T15:43:01.695Z,9.68
2022-09-26T15:46:20.204Z,8.23
2022-09-26T15:49:28.617Z,8.13
2022-09-26T15:52:35.529Z,8.98
2022-09-26T15:56:02.290Z,8.20
2022-09-26T15:59:10.366Z,8.45
2022-09-26T16:02:24.457Z,9.70
2022-09-26T16:05:27.582Z,9.30
2022-09-26T16:08:36.908Z,9.52
2022-09-26T16:11:57.042Z,9.70
2022-09-26T16:15:17.390Z,7.97
2022-09-26T16:18:27.049Z,10.70
2022-09-26T16:21:33.880Z,8.55
2022-09-26T16:24:36.281Z,8.68
2022-09-26T16:27:38.835Z,9.27
2022-09-26T16:31:08.633Z,9.13
2022-09-26T16:34:26.235Z,8.67
2022-09-26T16:37:28.842Z,9.02
2022-09-26T16:40:35.600Z,7.68
2022-09-26T16:43:39.889Z,8.40
2022-09-26T16:46:50.970Z,8.35
2022-09-26T16:49:53.461Z,7.63
2022-09-26T16:52:55.999Z,9.52
2022-09-26T16:55:58.614Z,9.15
2022-09-26T16:59:03.477Z,10.75
2022-09-26T17:02:09.804Z,9.63
2022-09-26T17:05:20.661Z,9.60
2022-09-26T17:08:27.630Z,9.35
2022-09-26T17:11:30.543Z,9.82
2022-09-26T17:14:40.801Z,8.25
2022-09-26T17:17:43.477Z,9.35
2022-09-26T17:20:46.633Z,9.30
2022-09-26T17:23:49.221Z,10.15
2022-09-26T17:27:03.231Z,8.35
2022-09-26T17:30:11.672Z,10.25
2022-09-26T17:33:14.588Z,10.55
2022-09-26T17:36:23.356Z,10.30
2022-09-26T17:39:26.290Z,8.82
2022-09-26T17:42:30.441Z,9.13
2022-09-26T17:45:40.861Z,11.20
2022-09-26T17:48:44.584Z,12.55
2022-09-26T17:51:47.455Z,11.60
2022-09-26T17:54:52.280Z,9.68
2022-09-26T17:57:58.601Z,16.42
2022-09-26T18:01:03.760Z,14.02
2022-09-26T18:04:07.677Z,17.45
2022-09-26T18:07:15.664Z,16.10
2022-09-26T18:10:23.954Z,17.52
2022-09-26T18:13:31.768Z,20.48
2022-09-26T18:16:34.558Z,18.65
2022-09-26T18:19:38.511Z,18.55
2022-09-26T18:22:41.260Z,20.90
2022-09-26T18:25:48.550Z,14.32
2022-09-26T18:28:55.922Z,16.17
2022-09-26T18:31:59.424Z,12.75
2022-09-26T18:35:04.403Z,13.55
2022-09-26T18:38:07.368Z,12.63
2022-09-26T18:41:10.543Z,12.93
2022-09-26T18:44:16.760Z,11.45
2022-09-26T18:47:19.509Z,11.95
2022-09-26T18:50:36.206Z,10.57
2022-09-26T18:53:40.528Z,10.53
2022-09-26T18:57:01.885Z,11.10
2022-09-26T19:00:08.367Z,10.57
2022-09-26T19:03:11.812Z,10.32
2022-09-26T19:06:19.238Z,11.20
2022-09-26T19:09:22.845Z,11.57
2022-09-26T19:12:25.444Z,10.48
2022-09-26T19:15:29.070Z,12.40
2022-09-26T19:18:31.800Z,11.12
2022-09-26T19:21:42.826Z,11.02
2022-09-26T19:24:49.445Z,12.73
2022-09-26T19:27:54.724Z,11.73
2022-09-26T19:30:57.413Z,13.20
2022-09-26T19:34:00.516Z,12.07
2022-09-26T19:37:06.001Z,10.32
2022-09-26T19:40:16.884Z,11.97
2022-09-26T19:43:20.545Z,10.93
2022-09-26T19:46:27.698Z,14.05
2022-09-26T19:49:32.122Z,11.75
2022-09-26T19:52:34.631Z,10.98
2022-09-26T19:55:37.394Z,13.10
2022-09-26T19:58:40.204Z,12.52
2022-09-26T20:01:46.432Z,13.48
2022-09-26T20:04:51.992Z,12.73
2022-09-26T20:07:54.430Z,12.55
2022-09-26T20:10:57.205Z,13.73
2022-09-26T20:14:18.352Z,12.37
2022-09-26T20:17:25.272Z,10.80
2022-09-26T20:20:28.021Z,12.15
2022-09-26T20:23:30.450Z,12.43
2022-09-26T20:26:33.421Z,12.87
2022-09-26T20:29:55.037Z,11.93
2022-09-26T20:32:57.395Z,12.80
2022-09-26T20:36:03.950Z,12.63
2022-09-26T20:39:10.365Z,12.88
2022-09-26T20:42:17.972Z,12.70
2022-09-26T20:45:25.748Z,12.18
2022-09-26T20:48:29.747Z,11.90
2022-09-26T20:51:35.606Z,12.18
2022-09-26T20:54:38.103Z,13.95
2022-09-26T20:57:41.707Z,12.40
2022-09-26T21:00:44.504Z,11.65
2022-09-26T21:03:58.307Z,12.60
2022-09-26T21:07:00.812Z,14.00
2022-09-26T21:10:19.931Z,15.15
2022-09-26T21:13:23.202Z,15.00
2022-09-26T21:16:26.067Z,14.45
2022-09-26T21:19:30.515Z,16.62
2022-09-26T21:22:34.120Z,13.98
2022-09-26T21:25:36.743Z,13.18
2022-09-26T21:28:39.375Z,13.37
2022-09-26T21:31:44.873Z,12.32
2022-09-26T21:34:58.742Z,14.18
2022-09-26T21:38:01.415Z,12.05
2022-09-26T21:41:04.220Z,15.80
2022-09-26T21:44:13.276Z,13.97
2022-09-26T21:47:15.770Z,14.32
2022-09-26T21:50:20.247Z,13.77
2022-09-26T21:53:38.799Z,16.62
2022-09-26T21:56:50.398Z,15.75
2022-09-26T21:59:53.090Z,14.90
2022-09-26T22:02:58.972Z,11.93
2022-09-26T22:06:07.183Z,12.27
2022-09-26T22:09:10.187Z,14.05
2022-09-26T22:12:15.803Z,14.65
2022-09-26T22:15:18.919Z,16.60
2022-09-26T22:18:21.336Z,14.38
2022-09-26T22:21:23.765Z,16.73
2022-09-26T22:24:26.267Z,13.82
2022-09-26T22:27:28.787Z,16.40
2022-09-26T22:30:31.384Z,16.90
2022-09-26T22:33:34.058Z,13.98
2022-09-26T22:36:36.735Z,13.77
2022-09-26T22:39:39.128Z,15.18
2022-09-26T22:42:41.660Z,17.55
2022-09-26T22:45:44.113Z,15.60
2022-09-26T22:48:47.531Z,15.25
2022-09-26T22:51:50.043Z,16.05
2022-09-26T22:54:52.455Z,13.50
2022-09-26T22:57:59.425Z,14.52
2022-09-26T23:01:08.079Z,14.30
2022-09-26T23:04:10.611Z,15.65
2022-09-26T23:07:18.405Z,16.65
2022-09-26T23:10:22.364Z,16.95
2022-09-26T23:13:25.707Z,16.83
2022-09-26T23:16:28.843Z,16.03
2022-09-26T23:19:31.626Z,18.23
2022-09-26T23:22:34.154Z,15.55
2022-09-26T23:25:37.586Z,13.45
2022-09-26T23:28:40.550Z,13.13
2022-09-26T23:31:43.808Z,18.40
2022-09-26T23:34:46.341Z,16.37
2022-09-26T23:37:49.795Z,18.90
2022-09-26T23:40:52.401Z,18.30
2022-09-26T23:43:54.826Z,22.37
2022-09-26T23:47:00.026Z,19.30
2022-09-26T23:50:02.400Z,19.95
2022-09-26T23:53:08.032Z,18.85
2022-09-26T23:56:12.414Z,16.70
2022-09-26T23:59:17.898Z,18.27
